createdAt,value
2023-06-17T00:01:44.444Z,4.53
2023-06-17T00:04:12.531Z,5.28
2023-06-17T00:06:40.693Z,4.88
2023-06-17T00:09:08.864Z,5.10
2023-06-17T00:11:37.747Z,5.35
2023-06-17T00:14:07.317Z,5.13
2023-06-17T00:16:38.026Z,5.90
2023-06-17T00:19:07.196Z,5.25
2023-06-17T00:21:35.848Z,4.63
2023-06-17T00:24:04.225Z,5.32
2023-06-17T00:26:32.392Z,5.15
2023-06-17T00:29:00.489Z,5.63
2023-06-17T00:31:29.960Z,5.63
2023-06-17T00:33:58.108Z,5.43
2023-06-17T00:36:26.267Z,5.47
2023-06-17T00:38:54.600Z,5.47
2023-06-17T00:41:23.384Z,5.63
2023-06-17T00:43:51.532Z,5.45
2023-06-17T00:46:24.853Z,5.82
2023-06-17T00:51:22.722Z,5.47
2023-06-17T00:53:51.634Z,5.60
2023-06-17T00:56:20.008Z,5.82
2023-06-17T00:58:48.279Z,6.00
2023-06-17T01:01:18.072Z,5.50
2023-06-17T01:03:46.864Z,5.63
2023-06-17T01:06:26.053Z,5.50
2023-06-17T01:09:02.735Z,5.18
2023-06-17T01:11:32.905Z,5.85
2023-06-17T01:14:02.020Z,5.40
2023-06-17T01:16:33.223Z,6.22
2023-06-17T01:19:03.457Z,5.82
2023-06-17T01:21:33.266Z,5.78
2023-06-17T01:24:04.634Z,6.43
2023-06-17T01:26:36.581Z,5.93
2023-06-17T01:29:04.996Z,6.32
2023-06-17T01:31:33.752Z,6.57
2023-06-17T01:34:03.931Z,6.22
2023-06-17T01:36:34.850Z,6.13
2023-06-17T01:39:05.386Z,6.65
2023-06-17T01:41:38.570Z,5.97
2023-06-17T01:46:37.012Z,6.13
2023-06-17T01:49:05.306Z,6.25
2023-06-17T01:51:33.416Z,6.53
2023-06-17T01:54:01.626Z,6.60
2023-06-17T01:56:30.084Z,6.47
2023-06-17T01:58:59.634Z,6.07
2023-06-17T02:01:27.755Z,6.28
2023-06-17T02:03:55.994Z,6.28
2023-06-17T02:06:24.597Z,6.65
2023-06-17T02:08:54.400Z,7.22
2023-06-17T02:11:22.605Z,6.57
2023-06-17T02:13:50.794Z,7.18
2023-06-17T02:16:20.367Z,6.70
2023-06-17T02:18:49.450Z,7.68
2023-06-17T02:21:17.547Z,6.78
2023-06-17T02:23:49.539Z,6.35
2023-06-17T02:26:18.257Z,6.63
2023-06-17T02:28:46.477Z,7.20
2023-06-17T02:31:14.637Z,7.95
2023-06-17T02:33:44.085Z,7.50
2023-06-17T02:36:12.996Z,7.38
2023-06-17T02:38:41.210Z,7.45
2023-06-17T02:41:09.387Z,8.50
2023-06-17T02:43:37.482Z,7.88
2023-06-17T02:46:05.577Z,7.35
2023-06-17T02:48:33.741Z,7.32
2023-06-17T02:51:05.232Z,6.57
2023-06-17T02:53:33.365Z,6.82
2023-06-17T02:56:01.720Z,7.38
2023-06-17T02:58:30.012Z,7.05
2023-06-17T03:00:59.042Z,8.48
2023-06-17T03:03:35.349Z,7.38
2023-06-17T03:06:08.364Z,7.72
2023-06-17T03:08:38.903Z,7.32
2023-06-17T03:11:07.035Z,6.97
2023-06-17T03:13:35.331Z,8.23
2023-06-17T03:16:03.878Z,7.53
2023-06-17T03:18:32.067Z,6.82
2023-06-17T03:21:00.182Z,7.28
2023-06-17T03:23:31.122Z,7.22
2023-06-17T03:25:59.497Z,7.35
2023-06-17T03:28:27.918Z,7.88
2023-06-17T03:30:56.090Z,7.32
2023-06-17T03:33:24.253Z,7.78
2023-06-17T03:35:52.776Z,7.88
2023-06-17T03:38:21.516Z,7.43
2023-06-17T03:40:51.187Z,7.28
2023-06-17T03:43:19.283Z,7.82
2023-06-17T03:45:47.401Z,8.15
2023-06-17T03:48:15.591Z,7.32
2023-06-17T03:50:43.718Z,8.40
2023-06-17T03:53:12.298Z,7.40
2023-06-17T03:55:40.818Z,7.40
2023-06-17T03:58:16.103Z,7.10
2023-06-17T04:00:44.429Z,7.97
2023-06-17T04:03:12.989Z,7.25
2023-06-17T04:05:43.106Z,7.55
2023-06-17T04:08:11.249Z,6.95
2023-06-17T04:10:39.654Z,7.25
2023-06-17T04:13:07.788Z,7.22
2023-06-17T04:15:37.292Z,7.80
2023-06-17T04:18:05.559Z,7.47
2023-06-17T04:20:35.784Z,7.30
2023-06-17T04:23:04.024Z,7.38
2023-06-17T04:25:33.515Z,7.30
2023-06-17T04:28:02.681Z,7.15
2023-06-17T04:30:31.379Z,7.47
2023-06-17T04:33:01.768Z,8.15
2023-06-17T04:35:30.372Z,7.55
2023-06-17T04:37:58.706Z,7.63
2023-06-17T04:40:28.530Z,7.30
2023-06-17T04:42:56.727Z,7.75
2023-06-17T04:45:24.846Z,7.80
2023-06-17T04:47:53.037Z,7.88
2023-06-17T04:50:24.865Z,7.10
2023-06-17T04:52:53.352Z,8.13
2023-06-17T04:55:23.078Z,8.13
2023-06-17T04:57:51.422Z,8.27
2023-06-17T05:00:22.369Z,8.00
2023-06-17T05:02:51.352Z,7.32
2023-06-17T05:05:19.510Z,7.97
2023-06-17T05:07:49.069Z,8.48
2023-06-17T05:10:17.187Z,7.43
2023-06-17T05:12:45.318Z,7.55
2023-06-17T05:15:13.448Z,8.20
2023-06-17T05:17:44.810Z,8.60
2023-06-17T05:20:13.593Z,8.05
2023-06-17T05:22:41.691Z,7.93
2023-06-17T05:25:11.483Z,7.68
2023-06-17T05:27:39.810Z,7.85
2023-06-17T05:30:09.127Z,7.78
2023-06-17T05:32:37.264Z,8.18
2023-06-17T05:35:06.221Z,8.80
2023-06-17T05:37:34.526Z,7.65
2023-06-17T05:40:03.934Z,7.93
2023-06-17T05:42:33.457Z,7.68
2023-06-17T05:45:01.678Z,8.02
2023-06-17T05:47:29.805Z,7.47
2023-06-17T05:49:57.946Z,8.27
2023-06-17T05:52:26.133Z,8.60
2023-06-17T05:54:54.265Z,8.68
2023-06-17T05:57:23.121Z,8.13
2023-06-17T05:59:52.685Z,9.00
2023-06-17T06:02:20.860Z,8.25
2023-06-17T06:04:49.332Z,8.45
2023-06-17T06:07:17.494Z,8.48
2023-06-17T06:09:45.590Z,8.35
2023-06-17T06:12:13.814Z,8.00
2023-06-17T06:14:41.969Z,8.10
2023-06-17T06:17:11.479Z,8.38
2023-06-17T06:19:39.567Z,8.30
2023-06-17T06:22:07.780Z,8.75
2023-06-17T06:24:36.004Z,8.63
2023-06-17T06:27:04.258Z,8.32
2023-06-17T06:29:32.346Z,8.25
2023-06-17T06:32:00.610Z,8.52
2023-06-17T06:34:31.339Z,7.90
2023-06-17T06:36:59.656Z,7.45
2023-06-17T06:39:28.456Z,8.15
2023-06-17T06:41:57.229Z,8.85
2023-06-17T06:44:25.324Z,8.38
2023-06-17T06:46:53.534Z,7.57
2023-06-17T06:49:22.343Z,7.47
2023-06-17T06:51:51.892Z,7.18
2023-06-17T06:54:20.004Z,5.80
2023-06-17T06:56:48.118Z,5.60
2023-06-17T06:59:16.376Z,5.18
2023-06-17T07:01:44.676Z,5.03
2023-06-17T07:04:12.918Z,4.95
2023-06-17T07:06:41.368Z,5.10
2023-06-17T07:09:10.868Z,5.13
2023-06-17T07:11:39.014Z,4.85
2023-06-17T07:14:07.832Z,5.30
2023-06-17T07:16:36.253Z,4.82
2023-06-17T07:19:04.374Z,4.30
2023-06-17T07:21:32.491Z,4.40
2023-06-17T07:24:00.710Z,8.57
2023-06-17T07:26:30.202Z,5.10
2023-06-17T07:28:58.289Z,4.43
2023-06-17T07:31:26.501Z,4.68
2023-06-17T07:33:59.632Z,4.32
2023-06-17T07:36:28.803Z,4.30
2023-06-17T07:38:57.936Z,3.42
2023-06-17T07:41:26.279Z,3.95
2023-06-17T07:43:55.833Z,4.00
2023-06-17T07:46:24.005Z,4.03
2023-06-17T07:48:52.207Z,3.65
2023-06-17T07:51:20.566Z,3.83
2023-06-17T07:53:48.753Z,3.75
2023-06-17T07:56:20.142Z,3.80
2023-06-17T07:58:48.512Z,2.97
2023-06-17T08:01:18.081Z,3.78
2023-06-17T08:03:46.431Z,3.25
2023-06-17T08:06:15.911Z,3.50
2023-06-17T08:08:44.407Z,3.08
2023-06-17T08:11:12.618Z,3.33
2023-06-17T08:13:40.776Z,3.65
2023-06-17T08:16:08.902Z,3.22
2023-06-17T08:18:38.425Z,3.50
2023-06-17T08:21:06.553Z,3.50
2023-06-17T08:23:34.715Z,3.35
2023-06-17T08:26:03.035Z,3.33
2023-06-17T08:28:31.164Z,3.22
2023-06-17T08:30:59.281Z,3.17
2023-06-17T08:33:27.862Z,2.92
2023-06-17T08:35:57.441Z,3.30
2023-06-17T08:38:25.561Z,3.60
2023-06-17T08:40:54.291Z,3.20
2023-06-17T08:43:23.073Z,3.22
2023-06-17T08:45:51.354Z,3.55
2023-06-17T08:48:20.032Z,2.97
2023-06-17T08:50:50.271Z,3.17
2023-06-17T08:53:21.187Z,3.25
2023-06-17T08:55:49.925Z,3.45
2023-06-17T08:58:18.125Z,3.28
2023-06-17T09:00:46.316Z,3.17
2023-06-17T09:03:17.663Z,2.97
2023-06-17T09:05:45.770Z,3.25
2023-06-17T09:08:14.036Z,3.60
2023-06-17T09:10:46.581Z,3.47
2023-06-17T09:13:14.847Z,3.30
2023-06-17T09:15:43.625Z,3.28
2023-06-17T09:18:11.972Z,3.10
2023-06-17T09:20:40.112Z,2.92
2023-06-17T09:23:17.745Z,2.88
2023-06-17T09:25:47.260Z,2.85
2023-06-17T09:28:17.791Z,3.03
2023-06-17T09:30:54.549Z,2.90
2023-06-17T09:33:24.676Z,3.33
2023-06-17T09:36:01.039Z,2.80
2023-06-17T09:38:29.833Z,2.70
2023-06-17T09:41:00.673Z,2.95
2023-06-17T09:43:30.077Z,2.92
2023-06-17T09:46:02.185Z,2.88
2023-06-17T09:48:34.506Z,3.03
2023-06-17T09:51:06.327Z,2.67
2023-06-17T09:53:38.525Z,2.80
2023-06-17T09:56:11.897Z,2.67
2023-06-17T09:58:44.050Z,2.65
2023-06-17T10:01:13.625Z,2.78
2023-06-17T10:03:42.216Z,2.83
2023-06-17T10:06:12.092Z,2.80
2023-06-17T10:08:43.352Z,2.53
2023-06-17T10:11:15.502Z,2.70
2023-06-17T10:13:46.373Z,3.15
2023-06-17T10:16:17.613Z,2.38
2023-06-17T10:18:49.842Z,2.70
2023-06-17T10:21:19.292Z,2.55
2023-06-17T10:23:49.040Z,2.40
2023-06-17T10:26:18.623Z,2.92
2023-06-17T10:28:59.049Z,2.20
2023-06-17T10:31:29.060Z,3.00
2023-06-17T10:33:58.868Z,2.38
2023-06-17T10:36:28.393Z,3.28
2023-06-17T10:38:58.258Z,2.65
2023-06-17T10:41:54.627Z,3.13
2023-06-17T10:44:31.315Z,2.50
2023-06-17T10:47:00.220Z,2.42
2023-06-17T10:49:39.651Z,3.65
2023-06-17T10:52:13.378Z,2.60
2023-06-17T10:54:47.804Z,2.80
2023-06-17T10:57:17.395Z,2.67
2023-06-17T10:59:45.490Z,2.65
2023-06-17T11:02:13.604Z,2.25
2023-06-17T11:04:42.994Z,3.17
2023-06-17T11:07:11.569Z,2.25
2023-06-17T11:09:39.735Z,2.20
2023-06-17T11:12:09.162Z,2.40
2023-06-17T11:14:41.468Z,2.85
2023-06-17T11:17:10.592Z,2.80
2023-06-17T11:19:38.819Z,2.55
2023-06-17T11:22:08.731Z,2.80
2023-06-17T11:24:38.260Z,2.50
2023-06-17T11:27:07.519Z,2.50
2023-06-17T11:29:35.796Z,2.60
2023-06-17T11:32:05.852Z,2.60
2023-06-17T11:34:35.157Z,2.30
2023-06-17T11:37:07.762Z,2.53
2023-06-17T11:39:39.387Z,2.60
2023-06-17T11:42:10.124Z,2.28
2023-06-17T11:44:38.846Z,2.53
2023-06-17T11:47:10.792Z,2.60
2023-06-17T11:49:43.839Z,2.65
2023-06-17T11:52:13.027Z,2.70
2023-06-17T11:54:46.820Z,2.47
2023-06-17T11:57:19.332Z,2.50
2023-06-17T11:59:47.575Z,2.25
2023-06-17T12:02:18.211Z,2.75
2023-06-17T12:04:47.425Z,2.55
2023-06-17T12:07:16.014Z,3.05
2023-06-17T12:09:52.033Z,2.28
2023-06-17T12:12:31.071Z,3.40
2023-06-17T12:15:04.657Z,2.70
2023-06-17T12:17:42.218Z,2.40
2023-06-17T12:20:16.008Z,2.35
2023-06-17T12:22:44.476Z,2.83
2023-06-17T12:25:13.456Z,2.83
2023-06-17T12:27:42.471Z,2.97
2023-06-17T12:30:11.671Z,2.50
2023-06-17T12:32:41.952Z,2.78
2023-06-17T12:35:12.669Z,2.65
2023-06-17T12:37:43.184Z,2.10
2023-06-17T12:40:12.697Z,3.25
2023-06-17T12:42:40.918Z,2.97
2023-06-17T12:45:10.099Z,3.10
2023-06-17T12:47:38.925Z,2.33
2023-06-17T12:50:09.443Z,2.72
2023-06-17T12:52:37.757Z,2.63
2023-06-17T12:55:06.843Z,2.85
2023-06-17T12:57:35.563Z,2.72
2023-06-17T13:00:05.972Z,2.75
2023-06-17T13:02:37.011Z,2.90
2023-06-17T13:05:06.420Z,2.95
2023-06-17T13:07:36.010Z,2.22
2023-06-17T13:10:04.624Z,2.85
2023-06-17T13:12:33.114Z,2.58
2023-06-17T13:15:01.555Z,2.67
2023-06-17T13:17:29.778Z,2.47
2023-06-17T13:19:58.460Z,2.60
2023-06-17T13:22:28.273Z,2.97
2023-06-17T13:24:58.241Z,2.70
2023-06-17T13:27:26.986Z,6.95
2023-06-17T13:29:55.233Z,4.35
2023-06-17T13:32:23.721Z,2.80
2023-06-17T13:34:51.865Z,2.80
2023-06-17T13:37:20.188Z,2.60
2023-06-17T13:39:48.297Z,2.67
2023-06-17T13:42:18.486Z,2.60
2023-06-17T13:44:46.640Z,3.03
2023-06-17T13:47:15.862Z,2.80
2023-06-17T13:49:44.160Z,2.75
2023-06-17T13:52:13.158Z,2.83
2023-06-17T13:54:41.363Z,2.45
2023-06-17T13:57:10.396Z,2.80
2023-06-17T13:59:40.192Z,2.70
2023-06-17T14:02:08.893Z,3.00
2023-06-17T14:04:37.081Z,2.90
2023-06-17T14:07:05.528Z,2.80
2023-06-17T14:09:34.005Z,3.03
2023-06-17T14:12:03.928Z,2.70
2023-06-17T14:14:32.068Z,2.80
2023-06-17T14:17:01.617Z,2.45
2023-06-17T14:19:32.510Z,2.83
2023-06-17T14:22:05.962Z,2.70
2023-06-17T14:24:34.721Z,2.78
2023-06-17T14:27:27.470Z,3.03
2023-06-17T14:29:55.681Z,2.95
2023-06-17T14:32:25.234Z,2.50
2023-06-17T14:34:55.036Z,2.60
2023-06-17T14:37:23.130Z,2.67
2023-06-17T14:39:51.214Z,2.55
2023-06-17T14:42:19.365Z,2.53
2023-06-17T14:44:47.481Z,2.75
2023-06-17T14:47:15.664Z,2.75
2023-06-17T14:49:45.526Z,2.60
2023-06-17T14:52:14.306Z,2.80
2023-06-17T14:54:42.697Z,2.65
2023-06-17T14:57:10.977Z,2.78
2023-06-17T14:59:39.347Z,2.83
2023-06-17T15:02:43.168Z,3.08
2023-06-17T15:05:13.241Z,2.50
2023-06-17T15:07:42.552Z,3.00
2023-06-17T15:10:11.143Z,3.22
2023-06-17T15:12:43.281Z,2.55
2023-06-17T15:15:13.204Z,2.50
2023-06-17T15:17:42.230Z,2.95
2023-06-17T15:20:12.584Z,2.78
2023-06-17T15:22:41.000Z,2.92
2023-06-17T15:25:09.771Z,3.90
2023-06-17T15:27:37.936Z,2.38
2023-06-17T15:30:07.235Z,3.13
2023-06-17T15:32:35.578Z,3.40
2023-06-17T15:35:03.756Z,3.45
2023-06-17T15:37:35.024Z,2.83
2023-06-17T15:40:05.234Z,3.20
2023-06-17T15:42:33.796Z,2.80
2023-06-17T15:45:01.972Z,3.15
2023-06-17T15:47:30.116Z,3.00
2023-06-17T15:49:58.264Z,3.03
2023-06-17T15:52:28.240Z,3.47
2023-06-17T15:54:57.868Z,2.85
2023-06-17T15:57:26.743Z,3.05
2023-06-17T15:59:55.660Z,2.90
2023-06-17T16:02:23.791Z,2.80
2023-06-17T16:04:54.791Z,2.95
2023-06-17T16:07:23.220Z,3.42
2023-06-17T16:09:53.582Z,2.63
2023-06-17T16:12:24.042Z,3.00
2023-06-17T16:14:52.159Z,3.05
2023-06-17T16:17:21.522Z,2.80
2023-06-17T16:19:49.787Z,2.70
2023-06-17T16:22:17.990Z,2.90
2023-06-17T16:24:46.105Z,2.67
2023-06-17T16:27:14.284Z,2.80
2023-06-17T16:29:43.795Z,3.40
2023-06-17T16:32:12.441Z,3.05
2023-06-17T16:34:40.824Z,2.65
2023-06-17T16:37:08.917Z,2.78
2023-06-17T16:39:37.084Z,2.67
2023-06-17T16:42:07.573Z,2.75
2023-06-17T16:44:36.053Z,2.63
2023-06-17T16:47:06.285Z,3.08
2023-06-17T16:49:34.415Z,3.22
2023-06-17T16:52:03.292Z,2.95
2023-06-17T16:54:31.432Z,2.80
2023-06-17T16:56:59.580Z,3.28
2023-06-17T16:59:27.844Z,3.25
2023-06-17T17:01:56.413Z,2.65
2023-06-17T17:04:26.172Z,3.28
2023-06-17T17:06:54.263Z,3.08
2023-06-17T17:09:22.377Z,2.95
2023-06-17T17:11:50.510Z,2.63
2023-06-17T17:14:18.637Z,3.30
2023-06-17T17:16:46.908Z,3.40
2023-06-17T17:19:15.377Z,2.90
2023-06-17T17:21:46.402Z,4.55
2023-06-17T17:24:14.886Z,3.30
2023-06-17T17:26:43.008Z,3.70
2023-06-17T17:29:11.482Z,4.28
2023-06-17T17:31:39.973Z,4.03
2023-06-17T17:34:08.075Z,3.58
2023-06-17T17:36:37.184Z,3.60
2023-06-17T17:39:07.986Z,3.53
2023-06-17T17:41:36.135Z,3.22
2023-06-17T17:44:04.245Z,4.30
2023-06-17T17:46:32.429Z,2.97
2023-06-17T17:49:00.644Z,3.38
2023-06-17T17:51:28.948Z,3.28
2023-06-17T17:53:57.039Z,3.13
2023-06-17T17:56:27.380Z,3.25
2023-06-17T17:58:55.614Z,3.20
2023-06-17T18:01:23.776Z,3.38
2023-06-17T18:03:51.891Z,3.20
2023-06-17T18:06:20.083Z,4.30
2023-06-17T18:08:48.444Z,3.38
2023-06-17T18:11:16.547Z,3.42
2023-06-17T18:13:46.001Z,3.30
2023-06-17T18:16:14.171Z,3.78
2023-06-17T18:18:42.298Z,3.42
2023-06-17T18:21:10.388Z,3.83
2023-06-17T18:23:38.610Z,3.28
2023-06-17T18:26:07.340Z,2.85
2023-06-17T18:28:35.483Z,3.40
2023-06-17T18:31:05.045Z,3.72
2023-06-17T18:33:33.168Z,3.45
2023-06-17T18:36:01.244Z,3.45
2023-06-17T18:38:29.595Z,3.50
2023-06-17T18:40:57.727Z,3.30
2023-06-17T18:43:25.950Z,3.50
2023-06-17T18:45:54.074Z,3.45
2023-06-17T18:48:24.783Z,3.92
2023-06-17T18:50:52.972Z,3.63
2023-06-17T18:53:21.104Z,4.03
2023-06-17T18:55:49.329Z,3.92
2023-06-17T18:58:17.471Z,4.45
2023-06-17T19:00:45.640Z,4.05
2023-06-17T19:03:13.842Z,3.63
2023-06-17T19:05:43.494Z,3.42
2023-06-17T19:08:11.595Z,4.00
2023-06-17T19:10:39.734Z,3.50
2023-06-17T19:13:07.837Z,3.90
2023-06-17T19:15:36.402Z,3.50
2023-06-17T19:18:04.855Z,3.75
2023-06-17T19:20:33.266Z,3.70
2023-06-17T19:23:02.950Z,3.55
2023-06-17T19:25:31.104Z,3.47
2023-06-17T19:28:00.469Z,4.47
2023-06-17T19:30:29.066Z,3.58
2023-06-17T19:32:57.228Z,3.63
2023-06-17T19:35:25.662Z,4.07
2023-06-17T19:37:53.815Z,4.78
2023-06-17T19:40:23.909Z,4.03
2023-06-17T19:42:52.280Z,4.40
2023-06-17T19:45:27.590Z,4.65
2023-06-17T19:47:56.151Z,5.53
2023-06-17T19:50:24.424Z,6.03
2023-06-17T19:52:52.645Z,6.07
2023-06-17T19:55:22.174Z,6.28
2023-06-17T19:57:50.276Z,5.43
2023-06-17T20:00:19.041Z,6.03
2023-06-17T20:02:49.829Z,5.13
2023-06-17T20:05:19.495Z,4.30
2023-06-17T20:07:47.610Z,3.50
2023-06-17T20:10:15.758Z,4.32
2023-06-17T20:12:45.217Z,11.38
2023-06-17T20:15:13.378Z,7.28
2023-06-17T20:17:41.655Z,4.45
2023-06-17T20:20:12.339Z,4.55
2023-06-17T20:22:42.296Z,4.28
2023-06-17T20:25:18.838Z,4.35
2023-06-17T20:27:48.357Z,4.18
2023-06-17T20:30:17.575Z,4.80
2023-06-17T20:32:45.724Z,4.40
2023-06-17T20:35:13.843Z,3.97
2023-06-17T20:37:43.632Z,4.57
2023-06-17T20:40:12.435Z,4.55
2023-06-17T20:42:40.607Z,4.90
2023-06-17T20:45:11.729Z,4.82
2023-06-17T20:47:39.889Z,5.13
2023-06-17T20:50:09.221Z,6.18
2023-06-17T20:52:37.407Z,10.23
2023-06-17T20:55:06.062Z,7.97
2023-06-17T20:57:34.453Z,4.97
2023-06-17T21:00:02.694Z,4.60
2023-06-17T21:02:32.337Z,4.40
2023-06-17T21:05:00.564Z,4.40
2023-06-17T21:07:28.688Z,3.85
2023-06-17T21:09:57.312Z,4.13
2023-06-17T21:12:25.590Z,4.00
2023-06-17T21:14:53.694Z,4.00
2023-06-17T21:17:21.806Z,4.18
2023-06-17T21:19:51.384Z,4.00
2023-06-17T21:22:19.561Z,4.13
2023-06-17T21:24:47.685Z,5.20
2023-06-17T21:27:15.862Z,4.10
2023-06-17T21:29:43.964Z,3.78
2023-06-17T21:32:12.605Z,3.80
2023-06-17T21:34:40.873Z,9.95
2023-06-17T21:37:10.383Z,5.20
2023-06-17T21:39:38.518Z,4.28
2023-06-17T21:42:07.246Z,5.40
2023-06-17T21:44:35.386Z,4.60
2023-06-17T21:47:03.530Z,5.00
2023-06-17T21:49:31.654Z,4.47
2023-06-17T21:51:59.916Z,4.90
2023-06-17T21:54:29.390Z,4.88
2023-06-17T21:56:57.513Z,3.97
2023-06-17T21:59:25.614Z,3.92
2023-06-17T22:01:53.771Z,4.35
2023-06-17T22:04:21.910Z,4.50
2023-06-17T22:06:50.058Z,4.47
2023-06-17T22:09:18.205Z,6.10
2023-06-17T22:11:47.669Z,5.03
2023-06-17T22:14:15.842Z,4.75
2023-06-17T22:16:43.970Z,4.32
2023-06-17T22:19:12.087Z,4.25
2023-06-17T22:21:40.194Z,4.68
2023-06-17T22:24:10.185Z,4.43
2023-06-17T22:26:38.482Z,4.38
2023-06-17T22:29:08.209Z,5.18
2023-06-17T22:31:36.367Z,4.57
2023-06-17T22:34:04.530Z,5.03
2023-06-17T22:36:32.646Z,4.57
2023-06-17T22:39:00.941Z,5.00
2023-06-17T22:41:29.181Z,4.90
2023-06-17T22:43:57.280Z,4.93
2023-06-17T22:46:27.402Z,4.65
2023-06-17T22:48:55.556Z,5.00
2023-06-17T22:51:24.535Z,4.82
2023-06-17T22:53:52.641Z,5.00
2023-06-17T22:56:20.756Z,5.15
2023-06-17T22:58:48.891Z,5.60
2023-06-17T23:01:17.066Z,5.45
2023-06-17T23:03:46.602Z,5.78
2023-06-17T23:06:14.967Z,5.13
2023-06-17T23:08:43.151Z,5.30
2023-06-17T23:11:11.439Z,5.22
2023-06-17T23:13:39.549Z,5.22
2023-06-17T23:16:07.675Z,5.28
2023-06-17T23:18:35.891Z,5.07
2023-06-17T23:21:05.909Z,5.40
2023-06-17T23:23:34.045Z,5.10
2023-06-17T23:26:03.452Z,4.53
2023-06-17T23:28:31.569Z,5.45
2023-06-17T23:31:01.415Z,4.82
2023-06-17T23:33:29.544Z,5.32
2023-06-17T23:35:57.633Z,5.47
2023-06-17T23:38:29.145Z,5.47
2023-06-17T23:40:57.455Z,5.60
2023-06-17T23:43:25.840Z,5.25
2023-06-17T23:45:56.034Z,4.85
2023-06-17T23:48:24.426Z,5.30
2023-06-17T23:50:52.890Z,5.13
2023-06-17T23:53:21.008Z,5.43
2023-06-17T23:55:50.610Z,5.07
2023-06-17T23:58:18.778Z,5.03
